Time;durP1;ratioP1;P1;durP2;ratioP2;P2;SDS_P1;SDS_P2;PMS_P1;PMS_P2;Temp;Humidity;BMP_temperature;BMP_pressure;BME280_temperature;BME280_humidity;BME280_pressure;Samples;Min_cycle;Max_cycle;Signal;HPM_P1;HPM_P2
2023/03/19 00:00:39;;;;;;;5.07;2.87;;;;;;;10.13;100.00;100920.88;5016091;28;20043;-78
2023/03/19 00:03:05;;;;;;;3.87;2.70;;;;;;;10.08;100.00;100915.25;5014547;28;21841;-78
2023/03/19 00:05:30;;;;;;;5.37;3.10;;;;;;;10.05;100.00;100923.78;5015721;28;20083;-78
2023/03/19 00:07:55;;;;;;;4.30;3.13;;;;;;;10.01;100.00;100926.06;5015973;28;20128;-78
2023/03/19 00:10:21;;;;;;;4.77;3.00;;;;;;;10.02;100.00;100926.91;5016046;28;20053;-78
2023/03/19 00:12:46;;;;;;;4.10;2.70;;;;;;;9.97;100.00;100928.34;5015874;28;20434;-78
2023/03/19 00:15:13;;;;;;;5.47;2.63;;;;;;;9.95;100.00;100937.72;5016191;28;20033;-78
2023/03/19 00:17:39;;;;;;;4.17;2.97;;;;;;;9.93;100.00;100931.69;5015611;28;20033;-78
2023/03/19 00:20:05;;;;;;;3.27;2.60;;;;;;;9.91;100.00;100931.03;5014898;28;20107;-78
2023/03/19 00:22:30;;;;;;;3.97;2.40;;;;;;;9.86;100.00;100931.66;5015599;28;20501;-78
2023/03/19 00:24:56;;;;;;;4.83;2.63;;;;;;;9.88;100.00;100934.16;5014822;28;20033;-78
2023/03/19 00:27:21;;;;;;;5.80;2.93;;;;;;;9.87;100.00;100932.50;5015656;28;20041;-77
2023/03/19 00:29:48;;;;;;;2.83;2.50;;;;;;;9.88;100.00;100935.00;5015733;28;20188;-78
2023/03/19 00:32:14;;;;;;;3.67;2.70;;;;;;;9.88;100.00;100935.00;5015495;28;20819;-78
2023/03/19 00:34:39;;;;;;;5.77;2.70;;;;;;;9.90;100.00;100942.91;5009634;28;20034;-78
2023/03/19 00:37:05;;;;;;;4.77;2.70;;;;;;;9.91;100.00;100936.47;5015547;28;20097;-78
2023/03/19 00:39:31;;;;;;;3.57;2.67;;;;;;;9.89;100.00;100942.06;5015617;28;20191;-78
2023/03/19 00:41:56;;;;;;;3.53;2.40;;;;;;;9.91;100.00;100937.31;5015406;28;20160;-78
2023/03/19 00:44:21;;;;;;;4.13;2.70;;;;;;;9.89;100.00;100939.38;5015300;28;20492;-81
2023/03/19 00:46:47;;;;;;;5.20;2.90;;;;;;;9.90;100.00;100943.75;5016604;28;20580;-81
2023/03/19 00:49:12;;;;;;;6.50;2.77;;;;;;;9.87;100.00;100941.44;5016104;28;20045;-81
2023/03/19 00:51:42;;;;;;;2.87;2.50;;;;;;;9.94;100.00;100950.41;5014821;28;20038;-81
2023/03/19 00:54:08;;;;;;;3.30;2.50;;;;;;;9.97;100.00;100939.19;5005337;28;20037;-81
2023/03/19 00:56:33;;;;;;;4.40;2.50;;;;;;;9.96;100.00;100944.81;4993623;28;20508;-81
2023/03/19 00:58:59;;;;;;;2.57;2.33;;;;;;;9.96;100.00;100942.91;5015823;28;20033;-81
2023/03/19 01:01:25;;;;;;;4.33;2.80;;;;;;;9.93;100.00;100934.41;5016163;28;20112;-81
2023/03/19 01:03:50;;;;;;;4.33;2.90;;;;;;;9.92;100.00;100936.25;5015724;28;20061;-81
2023/03/19 01:06:15;;;;;;;6.47;3.30;;;;;;;9.92;100.00;100946.25;5014835;28;21470;-81
2023/03/19 01:08:41;;;;;;;6.20;3.70;;;;;;;9.90;100.00;100949.16;5015824;28;20061;-81
2023/03/19 01:11:09;;;;;;;6.33;3.30;;;;;;;9.90;100.00;100942.91;5016109;28;21870;-81
2023/03/19 01:13:35;;;;;;;4.43;3.33;;;;;;;9.90;100.00;100946.47;5015566;28;20856;-78
2023/03/19 01:16:01;;;;;;;4.80;3.60;;;;;;;9.91;100.00;100942.72;5015447;28;20025;-78
2023/03/19 01:18:26;;;;;;;3.97;3.30;;;;;;;9.90;100.00;100948.31;5014838;28;20047;-78
2023/03/19 01:20:51;;;;;;;5.17;3.27;;;;;;;9.89;100.00;100942.06;5013951;28;20198;-78
2023/03/19 01:23:17;;;;;;;5.40;3.67;;;;;;;9.90;100.00;100938.34;5014818;28;20041;-78
2023/03/19 01:25:42;;;;;;;4.43;3.20;;;;;;;9.83;100.00;100942.88;5015212;28;20038;-78
2023/03/19 01:28:07;;;;;;;5.60;3.40;;;;;;;9.78;100.00;100935.38;5013676;28;20032;-77
2023/03/19 01:30:33;;;;;;;4.77;3.43;;;;;;;9.82;100.00;100935.81;5015283;28;20111;-78
2023/03/19 01:32:58;;;;;;;6.10;3.50;;;;;;;9.80;100.00;100927.06;5014662;28;20534;-78
2023/03/19 01:35:24;;;;;;;5.50;3.60;;;;;;;9.79;100.00;100936.22;5013838;28;20041;-78
2023/03/19 01:37:49;;;;;;;6.57;3.80;;;;;;;9.79;100.00;100939.78;5006715;28;20044;-78
2023/03/19 01:40:15;;;;;;;5.07;3.97;;;;;;;9.82;100.00;100941.25;5015219;28;20025;-78
2023/03/19 01:42:55;;;;;;;6.00;3.53;;;;;;;9.85;100.00;100935.41;5014817;28;20079;-77
2023/03/19 01:45:39;;;;;;;5.93;3.33;;;;;;;9.89;100.00;100931.25;5014940;28;20060;-78
2023/03/19 01:48:08;;;;;;;4.25;3.28;;;;;;;9.90;100.00;100932.94;5014696;28;20032;-77
2023/03/19 01:50:41;;;;;;;4.23;3.43;;;;;;;9.87;100.00;100930.59;5014856;28;20030;-78
2023/03/19 01:53:08;;;;;;;4.90;3.23;;;;;;;9.87;100.00;100937.91;5014811;28;20043;-78
2023/03/19 01:55:33;;;;;;;5.27;3.70;;;;;;;9.89;100.00;100936.66;5014785;28;20065;-78
2023/03/19 01:58:00;;;;;;;5.27;3.80;;;;;;;9.87;100.00;100938.72;5005135;28;20144;-78
2023/03/19 02:00:27;;;;;;;7.87;4.50;;;;;;;9.88;100.00;100932.28;5014666;28;20048;-78
2023/03/19 02:02:58;;;;;;;9.67;5.70;;;;;;;9.93;100.00;100937.09;5013035;28;20064;-77
2023/03/19 02:05:25;;;;;;;10.93;6.47;;;;;;;9.94;100.00;100941.44;5014687;28;20180;-78
2023/03/19 02:07:57;;;;;;;12.70;7.10;;;;;;;9.87;100.00;100940.63;5014496;28;20033;-78
2023/03/19 02:10:23;;;;;;;10.13;6.20;;;;;;;9.92;100.00;100933.53;5014784;28;20033;-77
2023/03/19 02:12:48;;;;;;;11.50;6.87;;;;;;;9.92;100.00;100932.72;5014322;28;20052;-78
2023/03/19 02:15:15;;;;;;;12.13;7.10;;;;;;;9.90;100.00;100935.63;5016911;28;20069;-78
2023/03/19 02:17:41;;;;;;;8.80;6.20;;;;;;;9.90;100.00;100930.22;5018505;28;20033;-81
2023/03/19 02:20:24;;;;;;;8.87;5.93;;;;;;;9.91;100.00;100937.31;5019132;28;20056;-81
2023/03/19 02:22:57;;;;;;;10.30;6.10;;;;;;;9.90;100.00;100937.50;5018738;28;20052;-81
2023/03/19 02:25:45;;;;;;;11.43;6.67;;;;;;;9.97;100.00;100943.78;5019261;28;20037;-81
2023/03/19 02:28:14;;;;;;;8.23;5.60;;;;;;;9.91;100.00;100944.56;5006987;28;20064;-78
2023/03/19 02:30:42;;;;;;;9.10;6.20;;;;;;;9.88;100.00;100934.16;5032903;28;20046;-78
2023/03/19 02:33:19;;;;;;;6.33;4.53;;;;;;;9.88;100.00;100945.00;5017315;28;21037;-78
2023/03/19 02:35:47;;;;;;;5.97;4.03;;;;;;;9.87;100.00;100940.63;5018259;28;20036;-77
2023/03/19 02:38:14;;;;;;;6.03;4.53;;;;;;;9.86;100.00;100941.63;5017504;28;20037;-78
2023/03/19 02:40:54;;;;;;;7.73;5.17;;;;;;;9.90;100.00;100951.88;5017837;28;20160;-78
2023/03/19 02:43:21;;;;;;;8.93;5.40;;;;;;;9.85;100.00;100940.81;5017287;28;20033;-77
2023/03/19 02:45:46;;;;;;;8.20;5.10;;;;;;;9.84;100.00;100939.16;5018103;28;20219;-78
2023/03/19 02:48:12;;;;;;;6.53;5.10;;;;;;;9.87;100.00;100937.91;5017526;28;20037;-78
2023/03/19 02:50:37;;;;;;;6.93;4.70;;;;;;;9.82;100.00;100946.66;5017748;28;20042;-81
2023/03/19 02:53:03;;;;;;;5.73;4.73;;;;;;;9.85;100.00;100951.66;5018415;28;20045;-81
2023/03/19 02:55:28;;;;;;;7.60;4.97;;;;;;;9.80;100.00;100952.28;5018925;28;20041;-81
2023/03/19 02:57:54;;;;;;;7.60;4.90;;;;;;;9.79;100.00;100950.59;5016666;28;20088;-81
2023/03/19 03:00:19;;;;;;;5.20;4.70;;;;;;;9.80;100.00;100959.53;5018415;28;20040;-81
2023/03/19 03:02:45;;;;;;;7.20;5.37;;;;;;;9.80;100.00;100952.28;5017384;28;20037;-81
2023/03/19 03:05:11;;;;;;;6.87;5.27;;;;;;;9.81;100.00;100961.22;5018564;28;20978;-78
2023/03/19 03:07:37;;;;;;;6.97;5.53;;;;;;;9.78;100.00;100965.16;5015684;28;20044;-77
2023/03/19 03:10:02;;;;;;;7.13;5.70;;;;;;;9.75;100.00;100962.88;5015897;28;20116;-78
2023/03/19 03:12:28;;;;;;;7.03;5.37;;;;;;;9.75;100.00;100956.59;5015683;28;20037;-78
2023/03/19 03:14:53;;;;;;;7.17;5.73;;;;;;;9.77;100.00;100957.25;5009297;28;20106;-78
2023/03/19 03:17:19;;;;;;;7.30;5.60;;;;;;;9.74;100.00;100965.78;5016952;28;20541;-78
2023/03/19 03:19:44;;;;;;;6.67;5.97;;;;;;;9.76;100.00;100963.69;5015873;28;20091;-78
2023/03/19 03:22:10;;;;;;;8.90;6.17;;;;;;;9.73;100.00;100955.97;5016970;28;20043;-78
2023/03/19 03:24:36;;;;;;;8.67;6.83;;;;;;;9.72;100.00;100952.44;5016706;28;20579;-78
2023/03/19 03:27:01;;;;;;;8.47;6.30;;;;;;;9.72;100.00;100957.03;5016202;28;20033;-77
2023/03/19 03:29:27;;;;;;;7.70;6.40;;;;;;;9.75;100.00;100957.44;5003974;28;20132;-78
2023/03/19 03:31:52;;;;;;;7.80;6.13;;;;;;;9.73;100.00;100964.94;5008504;28;21275;-78
2023/03/19 03:34:18;;;;;;;9.03;6.97;;;;;;;9.72;100.00;100960.53;5008501;28;20432;-78
2023/03/19 03:36:45;;;;;;;8.43;7.10;;;;;;;9.72;100.00;100965.13;5016872;28;20034;-78
2023/03/19 03:39:10;;;;;;;9.77;7.23;;;;;;;9.72;100.00;100968.66;5016632;28;20029;-78
2023/03/19 03:41:36;;;;;;;8.33;7.10;;;;;;;9.71;100.00;100960.75;5032690;28;20042;-78
2023/03/19 03:44:01;;;;;;;10.40;7.77;;;;;;;9.67;100.00;100959.50;5016535;28;20059;-78
2023/03/19 03:46:27;;;;;;;9.00;7.73;;;;;;;9.63;100.00;100959.91;5008646;28;20056;-78
2023/03/19 03:48:52;;;;;;;10.67;8.00;;;;;;;9.61;100.00;100966.56;5010470;28;20037;-77
2023/03/19 03:51:18;;;;;;;11.23;8.37;;;;;;;9.57;100.00;100966.13;5016443;28;20056;-77
2023/03/19 03:53:44;;;;;;;11.73;8.40;;;;;;;9.52;100.00;100968.63;5016325;28;20112;-78
2023/03/19 03:56:09;;;;;;;12.67;8.63;;;;;;;9.48;100.00;100961.09;5016355;28;20033;-78
2023/03/19 03:58:34;;;;;;;10.90;8.77;;;;;;;9.44;100.00;100960.69;5015812;28;20512;-78
2023/03/19 04:01:00;;;;;;;10.80;8.77;;;;;;;9.42;100.00;100973.53;5016276;28;20314;-78
2023/03/19 04:03:25;;;;;;;12.37;8.90;;;;;;;9.37;100.00;100976.00;5016093;28;20036;-78
2023/03/19 04:05:51;;;;;;;10.70;8.90;;;;;;;9.32;100.00;100978.50;5016132;28;20038;-77
2023/03/19 04:08:17;;;;;;;11.80;9.03;;;;;;;9.29;100.00;100979.75;5015694;28;20037;-78
2023/03/19 04:10:42;;;;;;;11.60;9.10;;;;;;;9.26;100.00;100980.97;5017119;28;20038;-81
2023/03/19 04:13:09;;;;;;;12.90;9.13;;;;;;;9.26;100.00;100983.69;5016838;28;20033;-81
2023/03/19 04:15:35;;;;;;;14.40;10.50;;;;;;;9.20;100.00;100981.75;5015606;28;20029;-81
2023/03/19 04:18:00;;;;;;;15.93;11.63;;;;;;;9.17;100.00;100975.94;5016765;28;20068;-81
2023/03/19 04:20:26;;;;;;;18.57;13.63;;;;;;;9.11;100.00;100975.69;5016839;28;20058;-82
2023/03/19 04:22:51;;;;;;;19.13;13.50;;;;;;;9.06;100.00;100967.34;5016503;28;20038;-81
2023/03/19 04:25:17;;;;;;;18.77;11.37;;;;;;;9.04;100.00;100969.38;5007914;28;20044;-81
2023/03/19 04:27:43;;;;;;;15.63;10.53;;;;;;;9.03;100.00;100973.16;5016236;28;20669;-81
2023/03/19 04:30:10;;;;;;;17.80;11.73;;;;;;;8.98;100.00;100977.47;5016001;28;20056;-81
2023/03/19 04:32:36;;;;;;;17.23;11.97;;;;;;;8.95;100.00;100978.72;5016481;28;20401;-81
2023/03/19 04:35:02;;;;;;;19.87;12.63;;;;;;;8.94;100.00;100982.44;5016451;28;20037;-78
2023/03/19 04:37:27;;;;;;;19.30;12.70;;;;;;;8.91;100.00;100986.38;5015736;28;20112;-77
2023/03/19 04:39:53;;;;;;;15.37;11.17;;;;;;;8.89;100.00;100983.00;5007448;28;20025;-77
2023/03/19 04:42:19;;;;;;;12.83;9.93;;;;;;;8.84;100.00;100982.78;5015679;28;20400;-77
2023/03/19 04:44:44;;;;;;;13.63;10.47;;;;;;;8.83;100.00;100989.22;5016203;28;20025;-81
2023/03/19 04:47:10;;;;;;;13.20;9.77;;;;;;;8.85;100.00;100989.00;5016238;28;21956;-81
2023/03/19 04:49:35;;;;;;;11.77;9.20;;;;;;;8.86;100.00;100980.72;5015752;28;20036;-81
2023/03/19 04:52:01;;;;;;;12.73;9.73;;;;;;;8.82;100.00;100978.59;5016085;28;20045;-81
2023/03/19 04:54:27;;;;;;;13.37;10.00;;;;;;;8.84;100.00;100974.69;5015827;28;20165;-81
2023/03/19 04:56:52;;;;;;;12.73;9.93;;;;;;;8.80;100.00;100986.91;5016599;28;21258;-81
2023/03/19 04:59:18;;;;;;;12.37;9.93;;;;;;;8.75;100.00;100989.38;5016212;28;20029;-81
2023/03/19 05:01:43;;;;;;;12.40;9.87;;;;;;;8.77;100.00;100995.41;5015517;28;20037;-81
2023/03/19 05:04:09;;;;;;;12.50;10.10;;;;;;;8.75;100.00;101005.56;5014624;28;20033;-81
2023/03/19 05:06:36;;;;;;;13.77;10.47;;;;;;;8.69;100.00;101001.78;5015514;28;20087;-81
2023/03/19 05:09:03;;;;;;;13.93;10.97;;;;;;;8.69;100.00;101006.34;5015482;28;20044;-81
2023/03/19 05:11:29;;;;;;;13.87;10.87;;;;;;;8.65;100.00;101002.38;5015485;28;20037;-81
2023/03/19 05:13:55;;;;;;;14.03;10.97;;;;;;;8.64;100.00;101006.13;5015472;28;20057;-81
2023/03/19 05:16:20;;;;;;;14.67;11.20;;;;;;;8.64;100.00;101016.91;5016238;28;20087;-81
2023/03/19 05:18:45;;;;;;;14.57;11.80;;;;;;;8.65;100.00;101011.31;5016475;28;20028;-81
2023/03/19 05:21:11;;;;;;;15.20;11.00;;;;;;;8.63;100.00;101015.25;5016483;28;20038;-81
2023/03/19 05:23:37;;;;;;;14.43;11.37;;;;;;;8.60;100.00;101020.00;5015713;28;20029;-81
2023/03/19 05:26:03;;;;;;;14.53;11.80;;;;;;;8.59;100.00;101018.34;5015992;28;20844;-81
2023/03/19 05:28:28;;;;;;;15.73;11.60;;;;;;;8.53;100.00;101024.50;5015766;28;21779;-81
2023/03/19 05:30:54;;;;;;;16.47;12.47;;;;;;;8.53;100.00;101020.97;5015960;28;20050;-81
2023/03/19 05:33:21;;;;;;;16.63;12.63;;;;;;;8.55;100.00;101024.31;5015649;28;20029;-81
2023/03/19 05:35:47;;;;;;;17.00;12.93;;;;;;;8.48;100.00;101020.72;5016292;28;20037;-81
2023/03/19 05:38:12;;;;;;;15.20;12.53;;;;;;;8.47;100.00;101014.47;5016196;28;20131;-81
2023/03/19 05:40:40;;;;;;;16.03;13.53;;;;;;;8.43;100.00;101018.56;5015493;28;20155;-81
2023/03/19 05:43:06;;;;;;;17.23;14.20;;;;;;;8.45;100.00;101024.66;5016011;28;20075;-81
2023/03/19 05:45:32;;;;;;;17.60;14.93;;;;;;;8.41;100.00;101031.44;5006602;28;20025;-78
2023/03/19 05:47:57;;;;;;;22.07;17.10;;;;;;;8.41;100.00;101031.44;5014838;28;20094;-77
2023/03/19 05:50:23;;;;;;;23.70;18.70;;;;;;;8.37;100.00;101025.56;5015802;28;21041;-77
2023/03/19 05:52:48;;;;;;;18.80;16.07;;;;;;;8.38;100.00;101037.22;5018621;28;20037;-78
2023/03/19 05:55:13;;;;;;;18.97;15.57;;;;;;;8.36;100.00;101037.38;5018584;28;20610;-77
2023/03/19 05:57:39;;;;;;;18.10;15.10;;;;;;;8.37;100.00;101039.06;5018656;28;20061;-77
2023/03/19 06:00:06;;;;;;;18.37;15.27;;;;;;;8.33;100.00;101048.56;5018467;28;20036;-77
2023/03/19 06:02:32;;;;;;;21.33;15.43;;;;;;;8.34;100.00;101042.16;5018769;28;20694;-81
2023/03/19 06:04:57;;;;;;;16.70;14.80;;;;;;;8.35;100.00;101040.28;5019235;28;20044;-81
2023/03/19 06:07:23;;;;;;;18.87;14.67;;;;;;;8.36;100.00;101040.09;5017413;28;20481;-81
2023/03/19 06:09:48;;;;;;;19.67;15.20;;;;;;;8.34;100.00;101036.75;5019197;28;20051;-81
2023/03/19 06:12:15;;;;;;;17.87;15.13;;;;;;;8.32;100.00;101043.38;5018887;28;20045;-81
2023/03/19 06:14:40;;;;;;;20.47;15.37;;;;;;;8.24;100.00;101047.88;5018696;28;20069;-81
2023/03/19 06:17:06;;;;;;;20.20;15.60;;;;;;;8.24;100.00;101047.88;5019067;28;20667;-81
2023/03/19 06:19:31;;;;;;;18.53;14.87;;;;;;;8.33;100.00;101055.84;5018742;28;20025;-81
2023/03/19 06:21:56;;;;;;;19.50;15.33;;;;;;;8.42;100.00;101060.09;5019233;28;20030;-81
2023/03/19 06:24:22;;;;;;;20.37;15.63;;;;;;;8.39;100.00;101061.31;5018363;28;20029;-81
2023/03/19 06:26:47;;;;;;;18.87;14.60;;;;;;;8.40;100.00;101056.75;5019403;28;20021;-81
2023/03/19 06:29:13;;;;;;;19.17;14.80;;;;;;;8.42;100.00;101070.91;5018793;28;20584;-81
2023/03/19 06:31:40;;;;;;;18.37;15.33;;;;;;;8.43;100.00;101068.00;5018415;28;20841;-81
2023/03/19 06:34:06;;;;;;;19.83;15.27;;;;;;;8.48;100.00;101075.56;5018216;28;20037;-81
2023/03/19 06:36:31;;;;;;;19.10;15.90;;;;;;;8.46;100.00;101072.22;5018130;28;20481;-78
2023/03/19 06:38:57;;;;;;;19.10;15.00;;;;;;;8.47;100.00;101079.28;5017862;28;21001;-78
2023/03/19 06:41:23;;;;;;;20.13;16.43;;;;;;;8.39;100.00;101076.66;5007809;28;20180;-78
2023/03/19 06:43:49;;;;;;;19.57;16.50;;;;;;;8.34;100.00;101085.34;5017586;28;20037;-78
2023/03/19 06:46:14;;;;;;;22.27;16.40;;;;;;;8.40;100.00;101084.56;5017752;28;20045;-77
2023/03/19 06:48:40;;;;;;;21.10;16.90;;;;;;;8.32;100.00;101083.88;5017298;28;20224;-78
2023/03/19 06:51:05;;;;;;;19.57;17.30;;;;;;;8.39;100.00;101088.31;5015918;28;20044;-77
2023/03/19 06:53:31;;;;;;;19.80;17.03;;;;;;;8.42;100.00;101095.22;4996043;28;20035;-78
2023/03/19 06:55:56;;;;;;;20.87;17.70;;;;;;;8.43;100.00;101094.16;5018264;28;20033;-81
2023/03/19 06:58:22;;;;;;;20.33;17.30;;;;;;;8.42;100.00;101097.91;5018706;28;21837;-81
2023/03/19 07:00:47;;;;;;;21.40;16.80;;;;;;;8.41;100.00;101102.47;5017250;28;20116;-81
2023/03/19 07:03:12;;;;;;;22.00;17.77;;;;;;;8.42;100.00;101100.59;5017391;28;20053;-81
2023/03/19 07:05:38;;;;;;;21.60;17.73;;;;;;;8.43;100.00;101100.41;5017936;28;20064;-81
2023/03/19 07:08:06;;;;;;;21.43;17.80;;;;;;;8.43;100.00;101111.22;5018346;28;20115;-81
2023/03/19 07:10:31;;;;;;;20.17;17.37;;;;;;;8.51;100.00;101110.28;5017359;28;20116;-80
2023/03/19 07:12:56;;;;;;;21.03;17.50;;;;;;;8.50;100.00;101114.03;5018208;28;20037;-81
2023/03/19 07:15:22;;;;;;;19.77;17.43;;;;;;;8.52;100.00;101116.53;5017741;28;20041;-81
2023/03/19 07:17:48;;;;;;;20.00;17.00;;;;;;;8.53;100.00;101110.94;5018028;28;20067;-81
2023/03/19 07:20:14;;;;;;;20.40;17.30;;;;;;;8.61;100.00;101118.09;5015437;28;20029;-81
2023/03/19 07:22:39;;;;;;;24.70;20.60;;;;;;;8.69;100.00;101127.91;5011960;28;20107;-81
2023/03/19 07:25:06;;;;;;;22.13;19.73;;;;;;;8.85;100.00;101127.66;5017159;28;20474;-81
2023/03/19 07:27:31;;;;;;;23.87;19.83;;;;;;;9.00;100.00;101130.28;5016887;28;20034;-81
2023/03/19 07:29:56;;;;;;;23.60;17.97;;;;;;;9.12;100.00;101130.59;5014792;28;20394;-81
2023/03/19 07:32:22;;;;;;;22.43;18.60;;;;;;;9.25;100.00;101138.81;5016934;28;20119;-81
2023/03/19 07:34:48;;;;;;;22.87;17.63;;;;;;;9.37;100.00;101132.84;5014423;28;20481;-81
2023/03/19 07:37:13;;;;;;;20.17;15.93;;;;;;;9.47;100.00;101138.78;5013499;28;20061;-81
2023/03/19 07:39:38;;;;;;;18.50;14.23;;;;;;;9.54;100.00;101136.94;5012826;28;20034;-82
2023/03/19 07:42:04;;;;;;;16.83;12.57;;;;;;;9.70;100.00;101143.91;5013213;28;20100;-82
2023/03/19 07:44:30;;;;;;;17.83;13.57;;;;;;;9.83;100.00;101137.72;5014593;28;20536;-81
2023/03/19 07:46:55;;;;;;;13.73;12.07;;;;;;;9.92;100.00;101147.38;5013536;28;20044;-81
2023/03/19 07:49:21;;;;;;;15.53;11.77;;;;;;;10.06;100.00;101148.28;5015144;28;20568;-81
2023/03/19 07:51:46;;;;;;;16.30;11.70;;;;;;;10.14;100.00;101141.84;5017246;28;20116;-81
2023/03/19 07:54:12;;;;;;;14.57;11.50;;;;;;;10.23;100.00;101147.94;5016005;28;20090;-81
2023/03/19 07:56:37;;;;;;;15.20;10.63;;;;;;;10.34;100.00;101143.81;5035700;28;20036;-82
2023/03/19 07:59:03;;;;;;;14.97;9.63;;;;;;;10.50;100.00;101148.03;5017685;28;20060;-82
2023/03/19 08:01:28;;;;;;;15.33;10.10;;;;;;;10.66;100.00;101149.56;4993015;28;20060;-81
2023/03/19 08:03:54;;;;;;;14.93;10.40;;;;;;;10.58;100.00;101151.41;5007850;28;20124;-81
2023/03/19 08:06:19;;;;;;;15.27;10.33;;;;;;;10.56;100.00;101153.47;5014288;28;20091;-81
2023/03/19 08:08:45;;;;;;;14.83;9.60;;;;;;;10.50;100.00;101162.44;5016749;28;20033;-81
2023/03/19 08:11:10;;;;;;;13.77;9.90;;;;;;;10.47;100.00;101162.84;5015117;28;20099;-81
2023/03/19 08:13:35;;;;;;;14.23;9.40;;;;;;;10.41;100.00;101163.66;5015377;28;20045;-81
2023/03/19 08:16:01;;;;;;;14.63;9.77;;;;;;;10.55;100.00;101168.09;5016345;28;20032;-81
2023/03/19 08:18:26;;;;;;;14.40;9.83;;;;;;;10.64;100.00;101168.72;4998981;28;20056;-81
2023/03/19 08:20:52;;;;;;;14.33;9.57;;;;;;;11.07;100.00;101175.69;4998385;28;20370;-81
2023/03/19 08:23:17;;;;;;;14.70;9.40;;;;;;;11.21;100.00;101177.38;5016290;28;20386;-81
2023/03/19 08:25:43;;;;;;;14.77;9.80;;;;;;;11.30;100.00;101170.69;5015797;28;20476;-81
2023/03/19 08:28:08;;;;;;;15.40;9.00;;;;;;;11.42;100.00;101167.34;5015186;28;20152;-82
2023/03/19 08:30:35;;;;;;;12.87;9.10;;;;;;;11.45;100.00;101180.50;5013755;28;20203;-81
2023/03/19 08:33:01;;;;;;;13.33;9.07;;;;;;;11.59;100.00;101184.88;5015570;28;20511;-81
2023/03/19 08:35:26;;;;;;;11.77;8.73;;;;;;;11.72;100.00;101188.63;5015799;28;20112;-81
2023/03/19 08:37:53;;;;;;;11.77;8.40;;;;;;;11.64;100.00;101184.22;5016008;28;20113;-81
2023/03/19 08:40:19;;;;;;;14.13;8.40;;;;;;;11.47;100.00;101186.56;5015319;28;20017;-81
2023/03/19 08:42:44;;;;;;;12.83;8.70;;;;;;;11.38;100.00;101185.09;5006698;28;20112;-81
2023/03/19 08:45:11;;;;;;;12.90;8.60;;;;;;;11.41;100.00;101192.81;5014915;28;20037;-81
2023/03/19 08:47:36;;;;;;;14.80;8.27;;;;;;;11.44;100.00;101192.41;5015815;28;20650;-81
2023/03/19 08:50:03;;;;;;;11.80;8.10;;;;;;;11.32;100.00;101198.44;5015487;28;20033;-78
2023/03/19 08:52:29;;;;;;;15.23;8.13;;;;;;;11.48;100.00;101193.66;5015416;28;20030;-79
2023/03/19 08:54:54;;;;;;;14.13;7.70;;;;;;;11.62;100.00;101192.59;4997750;28;20025;-79
2023/03/19 08:57:20;;;;;;;18.50;8.37;;;;;;;11.48;100.00;101202.63;5015701;28;20112;-81
2023/03/19 08:59:45;;;;;;;16.60;7.90;;;;;;;11.37;100.00;101205.13;5015618;28;20033;-81
2023/03/19 09:02:11;;;;;;;14.63;7.30;;;;;;;11.47;100.00;101211.81;5006366;28;20456;-81
2023/03/19 09:04:43;;;;;;;17.07;7.40;;;;;;;11.38;100.00;101204.94;5015622;28;20037;-81
2023/03/19 09:07:14;;;;;;;14.50;7.73;;;;;;;11.46;100.00;101206.59;5015100;28;20061;-82
2023/03/19 09:09:40;;;;;;;14.93;7.43;;;;;;;11.37;100.00;101205.97;5015445;28;20049;-78
2023/03/19 09:12:08;;;;;;;16.63;7.47;;;;;;;11.54;100.00;101214.50;5015092;28;20030;-78
2023/03/19 09:14:34;;;;;;;15.50;7.57;;;;;;;11.47;100.00;101210.97;5015024;28;20038;-78
2023/03/19 09:17:00;;;;;;;15.40;7.60;;;;;;;11.41;100.00;101215.38;5015093;28;20033;-78
2023/03/19 09:19:25;;;;;;;15.10;7.40;;;;;;;11.47;100.00;101221.84;5010895;28;21015;-78
2023/03/19 09:21:51;;;;;;;14.60;7.60;;;;;;;11.49;100.00;101227.88;5015094;28;20564;-82
2023/03/19 09:24:17;;;;;;;14.53;7.70;;;;;;;11.52;100.00;101232.03;5015917;28;20033;-81
2023/03/19 09:26:43;;;;;;;15.30;7.53;;;;;;;11.48;100.00;101231.66;4998133;28;20033;-79
2023/03/19 09:29:09;;;;;;;13.53;7.83;;;;;;;11.45;100.00;101230.19;5019014;28;20025;-78
2023/03/19 09:31:36;;;;;;;14.67;7.73;;;;;;;11.36;100.00;101245.00;5018739;28;20060;-78
2023/03/19 09:34:01;;;;;;;15.07;7.57;;;;;;;11.36;100.00;101239.56;5009960;28;20125;-78
2023/03/19 09:36:26;;;;;;;16.77;8.63;;;;;;;11.40;100.00;101253.56;5017319;28;20048;-78
2023/03/19 09:38:52;;;;;;;19.63;9.17;;;;;;;11.40;100.00;101248.13;5017881;28;20060;-81
2023/03/19 09:41:29;;;;;;;16.90;9.20;;;;;;;11.44;100.00;101252.09;5018958;28;20033;-81
2023/03/19 09:43:57;;;;;;;15.00;8.60;;;;;;;11.57;100.00;101257.53;5018920;28;20136;-79
2023/03/19 09:46:37;;;;;;;16.03;8.20;;;;;;;11.95;100.00;101256.06;5018057;28;20112;-78
2023/03/19 09:49:11;;;;;;;15.70;8.73;;;;;;;12.27;100.00;101262.50;5018496;28;20033;-79
2023/03/19 09:51:47;;;;;;;13.43;8.43;;;;;;;12.40;100.00;101266.22;5018331;28;20032;-79
2023/03/19 09:54:41;;;;;;;14.27;8.20;;;;;;;12.58;100.00;101265.53;5018518;28;20318;-79
2023/03/19 09:57:09;;;;;;;14.57;7.85;;;;;;;12.90;100.00;101258.28;5018257;28;20548;-79
2023/03/19 09:59:35;;;;;;;14.53;7.63;;;;;;;13.49;100.00;101264.44;5018621;28;20045;-79
2023/03/19 10:02:31;;;;;;;13.37;7.60;;;;;;;13.78;100.00;101261.28;5019052;28;20065;-79
2023/03/19 10:05:15;;;;;;;13.70;6.80;;;;;;;14.24;98.05;101256.41;5018795;28;20041;-79
2023/03/19 10:08:03;;;;;;;13.10;6.82;;;;;;;14.31;93.85;101266.19;5016639;28;20591;-79
2023/03/19 10:10:43;;;;;;;13.83;6.87;;;;;;;14.45;91.49;101260.59;5017564;28;20041;-79
2023/03/19 10:13:08;;;;;;;12.90;5.93;;;;;;;14.68;91.44;101257.19;5018390;28;20040;-79
2023/03/19 10:15:36;;;;;;;11.90;4.90;;;;;;;14.92;88.50;101266.31;5017847;28;20033;-79
2023/03/19 10:18:05;;;;;;;11.53;5.00;;;;;;;14.98;85.89;101261.84;5017032;28;20033;-79
2023/03/19 10:20:42;;;;;;;12.50;5.03;;;;;;;14.91;85.98;101266.56;5017559;28;20036;-79
2023/03/19 10:23:25;;;;;;;12.13;5.00;;;;;;;15.15;86.78;101267.47;5017886;28;20401;-79
2023/03/19 10:25:57;;;;;;;14.47;5.37;;;;;;;15.12;84.01;101267.94;5016467;28;20041;-79
2023/03/19 10:28:24;;;;;;;12.40;4.90;;;;;;;15.04;84.01;101271.84;5018176;28;20452;-79
2023/03/19 10:31:11;;;;;;;12.87;5.27;;;;;;;15.35;85.45;101270.75;5016240;28;20042;-79
2023/03/19 10:34:04;;;;;;;14.43;5.30;;;;;;;15.28;82.74;101270.00;5015955;28;20037;-79
2023/03/19 10:36:34;;;;;;;12.17;5.10;;;;;;;15.14;80.79;101274.00;5017021;28;20033;-79
2023/03/19 10:38:59;;;;;;;13.70;5.37;;;;;;;15.22;82.51;101283.75;5018117;28;20033;-79
2023/03/19 10:41:41;;;;;;;9.63;5.33;;;;;;;15.33;83.44;101281.06;5017363;28;20044;-79
2023/03/19 10:44:16;;;;;;;11.60;5.40;;;;;;;15.13;82.70;101280.53;5017960;28;20054;-79
2023/03/19 10:46:41;;;;;;;11.53;5.50;;;;;;;14.92;83.37;101277.25;5017588;28;20047;-81
2023/03/19 10:49:12;;;;;;;12.13;5.53;;;;;;;14.80;85.49;101282.63;5016740;28;20041;-81
2023/03/19 10:51:38;;;;;;;13.80;6.13;;;;;;;14.35;87.18;101278.31;5017355;28;20121;-82
2023/03/19 10:54:21;;;;;;;14.20;6.17;;;;;;;14.53;90.57;101284.81;5018080;28;20073;-81
2023/03/19 10:56:47;;;;;;;11.20;5.80;;;;;;;14.01;88.38;101288.72;5017424;28;20065;-81
2023/03/19 10:59:22;;;;;;;14.03;6.47;;;;;;;13.88;91.51;101283.38;5017788;28;20029;-81
2023/03/19 11:01:48;;;;;;;14.83;7.60;;;;;;;13.61;91.43;101293.66;5017471;28;20033;-81
2023/03/19 11:04:20;;;;;;;14.37;7.53;;;;;;;13.63;93.12;101289.66;5018063;28;20037;-81
2023/03/19 11:06:54;;;;;;;14.10;7.40;;;;;;;13.94;94.32;101290.66;5017688;28;20059;-82
2023/03/19 11:09:31;;;;;;;14.35;7.38;;;;;;;14.26;96.56;101289.72;5017668;28;20148;-81
2023/03/19 11:12:04;;;;;;;14.87;7.53;;;;;;;14.28;92.42;101293.91;5017169;28;20029;-81
2023/03/19 11:14:35;;;;;;;14.20;6.93;;;;;;;14.62;93.34;101296.25;5016446;28;20021;-81